sensor_id;sensor_type;location;lat;lon;timestamp;temperature;humidity
24518;DHT22;12678;51.336;12.406;2023-03-14T00:00:35;11.60;99.90
24518;DHT22;12678;51.336;12.406;2023-03-14T00:03:01;11.60;99.90
24518;DHT22;12678;51.336;12.406;2023-03-14T00:05:26;11.60;99.90
24518;DHT22;12678;51.336;12.406;2023-03-14T00:07:52;11.60;99.90
24518;DHT22;12678;51.336;12.406;2023-03-14T00:10:18;11.60;99.90
24518;DHT22;12678;51.336;12.406;2023-03-14T00:12:44;11.60;99.90
24518;DHT22;12678;51.336;12.406;2023-03-14T00:15:11;11.50;99.90
24518;DHT22;12678;51.336;12.406;2023-03-14T00:17:37;11.50;99.90
24518;DHT22;12678;51.336;12.406;2023-03-14T00:20:04;11.50;99.90
24518;DHT22;12678;51.336;12.406;2023-03-14T00:22:37;11.50;99.90
24518;DHT22;12678;51.336;12.406;2023-03-14T00:25:03;11.50;99.90
24518;DHT22;12678;51.336;12.406;2023-03-14T00:27:29;11.50;99.90
24518;DHT22;12678;51.336;12.406;2023-03-14T00:29:55;11.40;99.90
24518;DHT22;12678;51.336;12.406;2023-03-14T00:32:21;11.40;99.90
24518;DHT22;12678;51.336;12.406;2023-03-14T00:34:47;11.40;99.90
24518;DHT22;12678;51.336;12.406;2023-03-14T00:37:13;11.30;99.90
24518;DHT22;12678;51.336;12.406;2023-03-14T00:39:39;11.40;99.90
24518;DHT22;12678;51.336;12.406;2023-03-14T00:42:04;11.40;99.90
24518;DHT22;12678;51.336;12.406;2023-03-14T00:44:30;11.40;99.90
24518;DHT22;12678;51.336;12.406;2023-03-14T00:46:57;11.40;99.90
24518;DHT22;12678;51.336;12.406;2023-03-14T00:49:23;11.50;99.90
24518;DHT22;12678;51.336;12.406;2023-03-14T00:51:49;11.50;99.90
24518;DHT22;12678;51.336;12.406;2023-03-14T00:54:17;11.50;99.90
24518;DHT22;12678;51.336;12.406;2023-03-14T00:56:42;11.50;99.90
24518;DHT22;12678;51.336;12.406;2023-03-14T00:59:08;11.50;99.90
24518;DHT22;12678;51.336;12.406;2023-03-14T01:01:34;11.50;99.90
24518;DHT22;12678;51.336;12.406;2023-03-14T01:04:00;11.50;99.90
24518;DHT22;12678;51.336;12.406;2023-03-14T01:06:27;11.50;99.90
24518;DHT22;12678;51.336;12.406;2023-03-14T01:08:54;11.50;99.90
24518;DHT22;12678;51.336;12.406;2023-03-14T01:11:28;11.50;99.90
24518;DHT22;12678;51.336;12.406;2023-03-14T01:13:55;11.50;99.90
24518;DHT22;12678;51.336;12.406;2023-03-14T01:16:22;11.50;99.90
24518;DHT22;12678;51.336;12.406;2023-03-14T01:18:48;11.50;99.90
24518;DHT22;12678;51.336;12.406;2023-03-14T01:23:41;11.50;99.90
24518;DHT22;12678;51.336;12.406;2023-03-14T01:26:12;11.50;99.90
24518;DHT22;12678;51.336;12.406;2023-03-14T01:28:39;11.50;99.90
24518;DHT22;12678;51.336;12.406;2023-03-14T01:31:06;11.50;99.90
24518;DHT22;12678;51.336;12.406;2023-03-14T01:33:32;11.50;99.90
24518;DHT22;12678;51.336;12.406;2023-03-14T01:35:58;11.50;99.90
24518;DHT22;12678;51.336;12.406;2023-03-14T01:38:24;11.50;99.90
24518;DHT22;12678;51.336;12.406;2023-03-14T01:40:50;11.50;99.90
24518;DHT22;12678;51.336;12.406;2023-03-14T01:43:18;11.60;99.90
24518;DHT22;12678;51.336;12.406;2023-03-14T01:48:40;11.50;99.90
24518;DHT22;12678;51.336;12.406;2023-03-14T01:51:11;11.60;99.90
24518;DHT22;12678;51.336;12.406;2023-03-14T01:53:40;11.60;99.90
24518;DHT22;12678;51.336;12.406;2023-03-14T01:56:09;11.50;99.90
24518;DHT22;12678;51.336;12.406;2023-03-14T01:58:37;11.60;99.90
24518;DHT22;12678;51.336;12.406;2023-03-14T02:01:04;11.60;99.90
24518;DHT22;12678;51.336;12.406;2023-03-14T02:03:42;11.60;99.90
24518;DHT22;12678;51.336;12.406;2023-03-14T02:06:11;11.50;99.90
24518;DHT22;12678;51.336;12.406;2023-03-14T02:08:37;11.50;99.90
24518;DHT22;12678;51.336;12.406;2023-03-14T02:11:05;11.50;99.90
24518;DHT22;12678;51.336;12.406;2023-03-14T02:13:33;11.40;99.90
24518;DHT22;12678;51.336;12.406;2023-03-14T02:15:58;11.40;99.90
24518;DHT22;12678;51.336;12.406;2023-03-14T02:18:24;11.40;99.90
24518;DHT22;12678;51.336;12.406;2023-03-14T02:21:00;11.40;99.90
24518;DHT22;12678;51.336;12.406;2023-03-14T02:23:53;11.40;99.90
24518;DHT22;12678;51.336;12.406;2023-03-14T02:27:09;11.40;99.90
24518;DHT22;12678;51.336;12.406;2023-03-14T02:29:15;11.40;99.90
24518;DHT22;12678;51.336;12.406;2023-03-14T02:31:42;11.50;99.90
24518;DHT22;12678;51.336;12.406;2023-03-14T02:34:07;11.40;99.90
24518;DHT22;12678;51.336;12.406;2023-03-14T02:36:34;11.40;99.90
24518;DHT22;12678;51.336;12.406;2023-03-14T02:39:18;11.40;99.90
24518;DHT22;12678;51.336;12.406;2023-03-14T02:41:45;11.40;99.90
24518;DHT22;12678;51.336;12.406;2023-03-14T02:44:14;11.40;99.90
24518;DHT22;12678;51.336;12.406;2023-03-14T02:46:39;11.40;99.90
24518;DHT22;12678;51.336;12.406;2023-03-14T02:49:08;11.40;99.90
24518;DHT22;12678;51.336;12.406;2023-03-14T02:51:36;11.40;99.90
24518;DHT22;12678;51.336;12.406;2023-03-14T02:54:03;11.30;99.90
24518;DHT22;12678;51.336;12.406;2023-03-14T02:56:28;11.30;99.90
24518;DHT22;12678;51.336;12.406;2023-03-14T02:58:54;11.40;99.90
24518;DHT22;12678;51.336;12.406;2023-03-14T03:01:19;11.30;99.90
24518;DHT22;12678;51.336;12.406;2023-03-14T03:03:45;11.30;99.90
24518;DHT22;12678;51.336;12.406;2023-03-14T03:06:11;11.30;99.90
24518;DHT22;12678;51.336;12.406;2023-03-14T03:08:37;11.20;99.90
24518;DHT22;12678;51.336;12.406;2023-03-14T03:11:03;11.30;99.90
24518;DHT22;12678;51.336;12.406;2023-03-14T03:13:29;11.30;99.90
24518;DHT22;12678;51.336;12.406;2023-03-14T03:15:54;11.30;99.90
24518;DHT22;12678;51.336;12.406;2023-03-14T03:18:21;11.30;99.90
24518;DHT22;12678;51.336;12.406;2023-03-14T03:20:46;11.30;99.90
24518;DHT22;12678;51.336;12.406;2023-03-14T03:23:12;11.30;99.90
24518;DHT22;12678;51.336;12.406;2023-03-14T03:25:38;11.30;99.90
24518;DHT22;12678;51.336;12.406;2023-03-14T03:28:04;11.40;99.90
24518;DHT22;12678;51.336;12.406;2023-03-14T03:30:37;11.40;99.90
24518;DHT22;12678;51.336;12.406;2023-03-14T03:33:03;11.40;99.90
24518;DHT22;12678;51.336;12.406;2023-03-14T03:35:28;11.50;99.90
24518;DHT22;12678;51.336;12.406;2023-03-14T03:37:54;11.50;99.90
24518;DHT22;12678;51.336;12.406;2023-03-14T03:40:20;11.50;99.90
24518;DHT22;12678;51.336;12.406;2023-03-14T03:42:46;11.50;99.90
24518;DHT22;12678;51.336;12.406;2023-03-14T03:45:12;11.50;99.90
24518;DHT22;12678;51.336;12.406;2023-03-14T03:47:38;11.50;99.90
24518;DHT22;12678;51.336;12.406;2023-03-14T03:50:04;11.50;99.90
24518;DHT22;12678;51.336;12.406;2023-03-14T03:52:30;11.50;99.90
24518;DHT22;12678;51.336;12.406;2023-03-14T03:54:55;11.50;99.90
24518;DHT22;12678;51.336;12.406;2023-03-14T03:57:21;11.50;99.90
24518;DHT22;12678;51.336;12.406;2023-03-14T03:59:47;11.50;99.90
24518;DHT22;12678;51.336;12.406;2023-03-14T04:02:12;11.50;99.90
24518;DHT22;12678;51.336;12.406;2023-03-14T04:04:38;11.40;99.90
24518;DHT22;12678;51.336;12.406;2023-03-14T04:07:04;11.40;99.90
24518;DHT22;12678;51.336;12.406;2023-03-14T04:09:30;11.40;99.90
24518;DHT22;12678;51.336;12.406;2023-03-14T04:11:56;11.40;99.90
24518;DHT22;12678;51.336;12.406;2023-03-14T04:14:22;11.40;99.90
24518;DHT22;12678;51.336;12.406;2023-03-14T04:16:48;11.40;99.90
24518;DHT22;12678;51.336;12.406;2023-03-14T04:19:13;11.40;99.90
24518;DHT22;12678;51.336;12.406;2023-03-14T04:21:39;11.30;99.90
24518;DHT22;12678;51.336;12.406;2023-03-14T04:24:12;11.30;99.90
24518;DHT22;12678;51.336;12.406;2023-03-14T04:26:38;11.30;99.90
24518;DHT22;12678;51.336;12.406;2023-03-14T04:29:03;11.30;99.90
24518;DHT22;12678;51.336;12.406;2023-03-14T04:31:29;11.30;99.90
24518;DHT22;12678;51.336;12.406;2023-03-14T04:33:55;11.30;99.90
24518;DHT22;12678;51.336;12.406;2023-03-14T04:36:20;11.30;99.90
24518;DHT22;12678;51.336;12.406;2023-03-14T04:38:46;11.40;99.90
24518;DHT22;12678;51.336;12.406;2023-03-14T04:41:11;11.40;99.90
24518;DHT22;12678;51.336;12.406;2023-03-14T04:43:37;11.40;99.90
24518;DHT22;12678;51.336;12.406;2023-03-14T04:46:02;11.40;99.90
24518;DHT22;12678;51.336;12.406;2023-03-14T04:48:28;11.50;99.90
24518;DHT22;12678;51.336;12.406;2023-03-14T04:50:54;11.50;99.90
24518;DHT22;12678;51.336;12.406;2023-03-14T04:53:20;11.50;99.90
24518;DHT22;12678;51.336;12.406;2023-03-14T04:55:54;11.50;99.90
24518;DHT22;12678;51.336;12.406;2023-03-14T04:58:21;11.60;99.90
24518;DHT22;12678;51.336;12.406;2023-03-14T05:00:47;11.60;99.90
24518;DHT22;12678;51.336;12.406;2023-03-14T05:03:15;11.60;99.90
24518;DHT22;12678;51.336;12.406;2023-03-14T05:05:41;11.60;99.90
24518;DHT22;12678;51.336;12.406;2023-03-14T05:08:07;11.60;99.90
24518;DHT22;12678;51.336;12.406;2023-03-14T05:10:33;11.60;99.90
24518;DHT22;12678;51.336;12.406;2023-03-14T05:12:59;11.70;99.90
24518;DHT22;12678;51.336;12.406;2023-03-14T05:15:24;11.70;99.90
24518;DHT22;12678;51.336;12.406;2023-03-14T05:17:50;11.70;99.90
24518;DHT22;12678;51.336;12.406;2023-03-14T05:20:15;11.70;99.90
24518;DHT22;12678;51.336;12.406;2023-03-14T05:22:41;11.70;99.90
24518;DHT22;12678;51.336;12.406;2023-03-14T05:25:08;11.70;99.90
24518;DHT22;12678;51.336;12.406;2023-03-14T05:27:34;11.60;99.90
24518;DHT22;12678;51.336;12.406;2023-03-14T05:29:59;11.60;99.90
24518;DHT22;12678;51.336;12.406;2023-03-14T05:32:25;11.60;99.90
24518;DHT22;12678;51.336;12.406;2023-03-14T05:34:50;11.50;99.90
24518;DHT22;12678;51.336;12.406;2023-03-14T05:37:16;11.40;99.90
24518;DHT22;12678;51.336;12.406;2023-03-14T05:39:42;11.40;99.90
24518;DHT22;12678;51.336;12.406;2023-03-14T05:42:07;11.50;99.90
24518;DHT22;12678;51.336;12.406;2023-03-14T05:44:33;11.50;99.90
24518;DHT22;12678;51.336;12.406;2023-03-14T05:47:00;11.50;99.90
24518;DHT22;12678;51.336;12.406;2023-03-14T05:49:26;11.50;99.90
24518;DHT22;12678;51.336;12.406;2023-03-14T05:51:51;11.50;99.90
24518;DHT22;12678;51.336;12.406;2023-03-14T05:54:17;11.40;99.90
24518;DHT22;12678;51.336;12.406;2023-03-14T05:56:43;11.40;99.90
24518;DHT22;12678;51.336;12.406;2023-03-14T05:59:08;11.40;99.90
24518;DHT22;12678;51.336;12.406;2023-03-14T06:01:35;11.40;99.90
24518;DHT22;12678;51.336;12.406;2023-03-14T06:04:01;11.40;99.90
24518;DHT22;12678;51.336;12.406;2023-03-14T06:06:27;11.50;99.90
24518;DHT22;12678;51.336;12.406;2023-03-14T06:08:53;11.50;99.90
24518;DHT22;12678;51.336;12.406;2023-03-14T06:11:19;11.50;99.90
24518;DHT22;12678;51.336;12.406;2023-03-14T06:13:45;11.50;99.90
24518;DHT22;12678;51.336;12.406;2023-03-14T06:16:11;11.60;99.90
24518;DHT22;12678;51.336;12.406;2023-03-14T06:18:37;11.60;99.90
24518;DHT22;12678;51.336;12.406;2023-03-14T06:21:03;11.60;99.90
24518;DHT22;12678;51.336;12.406;2023-03-14T06:23:29;11.60;99.90
24518;DHT22;12678;51.336;12.406;2023-03-14T06:25:56;11.60;99.90
24518;DHT22;12678;51.336;12.406;2023-03-14T06:28:22;11.60;99.90
24518;DHT22;12678;51.336;12.406;2023-03-14T06:30:48;11.70;99.90
24518;DHT22;12678;51.336;12.406;2023-03-14T06:33:14;11.60;99.90
24518;DHT22;12678;51.336;12.406;2023-03-14T06:35:39;11.70;99.90
24518;DHT22;12678;51.336;12.406;2023-03-14T06:38:05;11.70;99.90
24518;DHT22;12678;51.336;12.406;2023-03-14T06:40:30;11.70;99.90
24518;DHT22;12678;51.336;12.406;2023-03-14T06:42:56;11.70;99.90
24518;DHT22;12678;51.336;12.406;2023-03-14T06:45:22;11.70;99.90
24518;DHT22;12678;51.336;12.406;2023-03-14T06:47:48;11.60;99.90
24518;DHT22;12678;51.336;12.406;2023-03-14T06:50:14;11.70;99.90
24518;DHT22;12678;51.336;12.406;2023-03-14T06:52:40;11.70;99.90
24518;DHT22;12678;51.336;12.406;2023-03-14T06:55:11;11.70;99.90
24518;DHT22;12678;51.336;12.406;2023-03-14T06:57:36;11.70;99.90
24518;DHT22;12678;51.336;12.406;2023-03-14T07:00:03;11.60;99.90
24518;DHT22;12678;51.336;12.406;2023-03-14T07:02:30;11.70;99.90
24518;DHT22;12678;51.336;12.406;2023-03-14T07:04:55;11.70;99.90
24518;DHT22;12678;51.336;12.406;2023-03-14T07:07:21;11.70;99.90
24518;DHT22;12678;51.336;12.406;2023-03-14T07:09:47;11.70;99.90
24518;DHT22;12678;51.336;12.406;2023-03-14T07:12:13;11.70;99.90
24518;DHT22;12678;51.336;12.406;2023-03-14T07:14:38;11.80;99.90
24518;DHT22;12678;51.336;12.406;2023-03-14T07:17:04;11.80;99.90
24518;DHT22;12678;51.336;12.406;2023-03-14T07:19:29;11.90;99.90
24518;DHT22;12678;51.336;12.406;2023-03-14T07:21:55;11.90;99.90
24518;DHT22;12678;51.336;12.406;2023-03-14T07:24:21;12.00;99.90
24518;DHT22;12678;51.336;12.406;2023-03-14T07:26:47;12.00;99.90
24518;DHT22;12678;51.336;12.406;2023-03-14T07:29:12;12.00;99.90
24518;DHT22;12678;51.336;12.406;2023-03-14T07:31:38;12.00;99.90
24518;DHT22;12678;51.336;12.406;2023-03-14T07:34:03;12.10;99.90
24518;DHT22;12678;51.336;12.406;2023-03-14T07:36:29;12.10;99.90
24518;DHT22;12678;51.336;12.406;2023-03-14T07:38:54;12.20;99.90
24518;DHT22;12678;51.336;12.406;2023-03-14T07:41:20;12.20;99.90
24518;DHT22;12678;51.336;12.406;2023-03-14T07:43:46;12.30;99.90
24518;DHT22;12678;51.336;12.406;2023-03-14T07:46:12;12.40;99.90
24518;DHT22;12678;51.336;12.406;2023-03-14T07:48:38;12.50;99.90
24518;DHT22;12678;51.336;12.406;2023-03-14T07:51:04;12.50;99.90
24518;DHT22;12678;51.336;12.406;2023-03-14T07:53:30;12.60;99.90
24518;DHT22;12678;51.336;12.406;2023-03-14T07:55:55;12.60;99.90
24518;DHT22;12678;51.336;12.406;2023-03-14T07:58:21;12.70;99.90
24518;DHT22;12678;51.336;12.406;2023-03-14T08:00:47;12.70;99.90
24518;DHT22;12678;51.336;12.406;2023-03-14T08:03:13;12.80;99.90
24518;DHT22;12678;51.336;12.406;2023-03-14T08:05:39;12.80;99.90
24518;DHT22;12678;51.336;12.406;2023-03-14T08:08:06;12.80;99.90
24518;DHT22;12678;51.336;12.406;2023-03-14T08:10:32;12.90;99.90
24518;DHT22;12678;51.336;12.406;2023-03-14T08:13:00;12.80;99.90
24518;DHT22;12678;51.336;12.406;2023-03-14T08:15:27;12.90;99.90
24518;DHT22;12678;51.336;12.406;2023-03-14T08:17:53;13.00;99.90
24518;DHT22;12678;51.336;12.406;2023-03-14T08:20:21;13.10;99.90
24518;DHT22;12678;51.336;12.406;2023-03-14T08:22:59;13.30;99.90
24518;DHT22;12678;51.336;12.406;2023-03-14T08:25:26;13.50;99.90
24518;DHT22;12678;51.336;12.406;2023-03-14T08:27:52;13.50;99.90
24518;DHT22;12678;51.336;12.406;2023-03-14T08:30:19;13.50;99.90
24518;DHT22;12678;51.336;12.406;2023-03-14T08:32:45;13.40;99.90
24518;DHT22;12678;51.336;12.406;2023-03-14T08:35:12;13.40;99.90
24518;DHT22;12678;51.336;12.406;2023-03-14T08:37:38;13.50;99.90
24518;DHT22;12678;51.336;12.406;2023-03-14T08:40:05;13.60;99.90
24518;DHT22;12678;51.336;12.406;2023-03-14T08:42:36;13.50;99.90
24518;DHT22;12678;51.336;12.406;2023-03-14T08:45:02;13.60;99.90
24518;DHT22;12678;51.336;12.406;2023-03-14T08:47:28;13.60;99.90
24518;DHT22;12678;51.336;12.406;2023-03-14T08:49:54;13.60;99.90
24518;DHT22;12678;51.336;12.406;2023-03-14T08:52:20;13.70;99.90
24518;DHT22;12678;51.336;12.406;2023-03-14T08:54:46;13.60;99.90
24518;DHT22;12678;51.336;12.406;2023-03-14T08:57:12;13.70;99.90
24518;DHT22;12678;51.336;12.406;2023-03-14T08:59:38;13.70;99.90
24518;DHT22;12678;51.336;12.406;2023-03-14T09:02:03;13.80;99.90
24518;DHT22;12678;51.336;12.406;2023-03-14T09:04:30;13.80;99.90
24518;DHT22;12678;51.336;12.406;2023-03-14T09:06:55;13.90;99.90
24518;DHT22;12678;51.336;12.406;2023-03-14T09:09:26;13.90;99.90
24518;DHT22;12678;51.336;12.406;2023-03-14T09:11:58;13.90;99.90
24518;DHT22;12678;51.336;12.406;2023-03-14T09:14:24;13.90;99.90
24518;DHT22;12678;51.336;12.406;2023-03-14T09:16:49;13.90;99.90
24518;DHT22;12678;51.336;12.406;2023-03-14T09:19:16;14.00;99.90
24518;DHT22;12678;51.336;12.406;2023-03-14T09:21:41;13.90;99.90
24518;DHT22;12678;51.336;12.406;2023-03-14T09:24:07;13.90;99.90
24518;DHT22;12678;51.336;12.406;2023-03-14T09:26:33;14.00;99.90
24518;DHT22;12678;51.336;12.406;2023-03-14T09:28:59;14.00;99.90
24518;DHT22;12678;51.336;12.406;2023-03-14T09:31:25;14.10;99.90
24518;DHT22;12678;51.336;12.406;2023-03-14T09:33:51;14.10;99.90
24518;DHT22;12678;51.336;12.406;2023-03-14T09:36:16;14.20;99.90
24518;DHT22;12678;51.336;12.406;2023-03-14T09:38:42;14.20;99.90
24518;DHT22;12678;51.336;12.406;2023-03-14T09:41:30;14.30;99.90
24518;DHT22;12678;51.336;12.406;2023-03-14T09:44:30;14.30;99.90
24518;DHT22;12678;51.336;12.406;2023-03-14T09:47:06;14.40;99.90
24518;DHT22;12678;51.336;12.406;2023-03-14T09:49:42;14.30;99.90
24518;DHT22;12678;51.336;12.406;2023-03-14T09:52:31;14.30;99.90
24518;DHT22;12678;51.336;12.406;2023-03-14T09:55:02;14.20;99.90
24518;DHT22;12678;51.336;12.406;2023-03-14T09:57:34;14.20;99.90
24518;DHT22;12678;51.336;12.406;2023-03-14T10:00:05;14.10;99.90
24518;DHT22;12678;51.336;12.406;2023-03-14T10:02:41;14.10;99.90
24518;DHT22;12678;51.336;12.406;2023-03-14T10:05:18;14.10;99.90
24518;DHT22;12678;51.336;12.406;2023-03-14T10:07:44;14.10;99.90
24518;DHT22;12678;51.336;12.406;2023-03-14T10:10:17;14.10;99.90
24518;DHT22;12678;51.336;12.406;2023-03-14T10:12:44;14.10;99.90
24518;DHT22;12678;51.336;12.406;2023-03-14T10:15:13;14.20;99.90
24518;DHT22;12678;51.336;12.406;2023-03-14T10:17:50;14.10;99.90
24518;DHT22;12678;51.336;12.406;2023-03-14T10:20:26;14.10;99.90
24518;DHT22;12678;51.336;12.406;2023-03-14T10:22:57;14.00;99.90
24518;DHT22;12678;51.336;12.406;2023-03-14T10:25:35;14.00;99.90
24518;DHT22;12678;51.336;12.406;2023-03-14T10:28:03;14.00;99.90
24518;DHT22;12678;51.336;12.406;2023-03-14T10:30:45;13.90;99.90
24518;DHT22;12678;51.336;12.406;2023-03-14T10:33:15;14.00;99.90
24518;DHT22;12678;51.336;12.406;2023-03-14T10:35:51;14.00;99.90
24518;DHT22;12678;51.336;12.406;2023-03-14T10:38:17;14.00;99.90
24518;DHT22;12678;51.336;12.406;2023-03-14T10:40:51;13.90;99.90
24518;DHT22;12678;51.336;12.406;2023-03-14T10:43:49;14.00;99.90
24518;DHT22;12678;51.336;12.406;2023-03-14T10:46:17;14.00;99.90
24518;DHT22;12678;51.336;12.406;2023-03-14T10:48:44;14.00;99.90
24518;DHT22;12678;51.336;12.406;2023-03-14T10:54:13;14.10;99.90
24518;DHT22;12678;51.336;12.406;2023-03-14T10:56:39;14.20;99.90
24518;DHT22;12678;51.336;12.406;2023-03-14T10:59:12;14.10;99.90
24518;DHT22;12678;51.336;12.406;2023-03-14T11:01:49;14.00;99.90
24518;DHT22;12678;51.336;12.406;2023-03-14T11:07:33;14.00;99.90
24518;DHT22;12678;51.336;12.406;2023-03-14T11:10:26;14.00;99.90
24518;DHT22;12678;51.336;12.406;2023-03-14T11:18:47;13.80;99.90
24518;DHT22;12678;51.336;12.406;2023-03-14T11:24:25;13.70;99.90
24518;DHT22;12678;51.336;12.406;2023-03-14T11:27:18;13.80;99.90
24518;DHT22;12678;51.336;12.406;2023-03-14T11:30:39;13.80;99.90
24518;DHT22;12678;51.336;12.406;2023-03-14T11:35:20;13.90;99.90
24518;DHT22;12678;51.336;12.406;2023-03-14T11:40:42;14.10;99.90
24518;DHT22;12678;51.336;12.406;2023-03-14T11:43:17;14.20;99.90
24518;DHT22;12678;51.336;12.406;2023-03-14T11:45:47;14.30;99.90
24518;DHT22;12678;51.336;12.406;2023-03-14T11:48:34;14.30;99.90
24518;DHT22;12678;51.336;12.406;2023-03-14T11:51:06;14.40;99.90
24518;DHT22;12678;51.336;12.406;2023-03-14T11:53:58;14.50;99.90
24518;DHT22;12678;51.336;12.406;2023-03-14T11:56:34;14.60;99.90
24518;DHT22;12678;51.336;12.406;2023-03-14T11:59:09;14.60;99.90
24518;DHT22;12678;51.336;12.406;2023-03-14T12:07:22;14.90;99.90
24518;DHT22;12678;51.336;12.406;2023-03-14T12:09:51;14.90;99.90
24518;DHT22;12678;51.336;12.406;2023-03-14T12:12:21;14.80;99.90
24518;DHT22;12678;51.336;12.406;2023-03-14T12:15:18;14.90;99.90
24518;DHT22;12678;51.336;12.406;2023-03-14T12:17:43;15.00;99.90
24518;DHT22;12678;51.336;12.406;2023-03-14T12:20:19;15.00;99.90
24518;DHT22;12678;51.336;12.406;2023-03-14T12:22:53;14.90;99.90
24518;DHT22;12678;51.336;12.406;2023-03-14T12:25:30;14.70;99.90
24518;DHT22;12678;51.336;12.406;2023-03-14T12:30:39;14.60;99.90
24518;DHT22;12678;51.336;12.406;2023-03-14T12:35:47;14.50;99.90
24518;DHT22;12678;51.336;12.406;2023-03-14T12:43:40;14.10;99.90
24518;DHT22;12678;51.336;12.406;2023-03-14T12:46:21;14.20;99.90
24518;DHT22;12678;51.336;12.406;2023-03-14T12:51:43;14.30;99.90
24518;DHT22;12678;51.336;12.406;2023-03-14T12:59:39;14.50;99.90
24518;DHT22;12678;51.336;12.406;2023-03-14T13:02:19;14.60;99.90
24518;DHT22;12678;51.336;12.406;2023-03-14T13:04:51;14.50;99.90
24518;DHT22;12678;51.336;12.406;2023-03-14T13:07:31;14.50;99.90
24518;DHT22;12678;51.336;12.406;2023-03-14T13:15:41;14.40;99.90
24518;DHT22;12678;51.336;12.406;2023-03-14T13:18:45;14.50;99.90
24518;DHT22;12678;51.336;12.406;2023-03-14T13:21:21;14.50;99.90
24518;DHT22;12678;51.336;12.406;2023-03-14T13:24:02;14.50;99.90
24518;DHT22;12678;51.336;12.406;2023-03-14T13:26:40;14.70;99.90
24518;DHT22;12678;51.336;12.406;2023-03-14T13:31:50;14.90;99.90
24518;DHT22;12678;51.336;12.406;2023-03-14T13:34:17;14.80;99.90
24518;DHT22;12678;51.336;12.406;2023-03-14T13:36:42;14.90;99.90
24518;DHT22;12678;51.336;12.406;2023-03-14T13:39:19;14.80;99.90
24518;DHT22;12678;51.336;12.406;2023-03-14T13:41:46;14.80;99.90
24518;DHT22;12678;51.336;12.406;2023-03-14T13:44:36;14.90;99.90
24518;DHT22;12678;51.336;12.406;2023-03-14T13:47:04;15.00;99.90
24518;DHT22;12678;51.336;12.406;2023-03-14T13:49:32;15.10;99.90
24518;DHT22;12678;51.336;12.406;2023-03-14T13:52:01;15.10;99.90
24518;DHT22;12678;51.336;12.406;2023-03-14T13:54:27;15.10;99.90
24518;DHT22;12678;51.336;12.406;2023-03-14T13:57:01;15.20;99.90
24518;DHT22;12678;51.336;12.406;2023-03-14T13:59:29;15.30;99.90
24518;DHT22;12678;51.336;12.406;2023-03-14T14:01:57;15.30;99.90
24518;DHT22;12678;51.336;12.406;2023-03-14T14:04:24;15.30;99.90
24518;DHT22;12678;51.336;12.406;2023-03-14T14:06:57;15.30;99.90
24518;DHT22;12678;51.336;12.406;2023-03-14T14:09:37;15.40;99.90
24518;DHT22;12678;51.336;12.406;2023-03-14T14:17:16;15.40;99.90
24518;DHT22;12678;51.336;12.406;2023-03-14T14:19:44;15.30;99.90
24518;DHT22;12678;51.336;12.406;2023-03-14T14:22:11;15.20;99.90
24518;DHT22;12678;51.336;12.406;2023-03-14T14:24:37;15.10;99.90
24518;DHT22;12678;51.336;12.406;2023-03-14T14:27:18;14.90;99.90
24518;DHT22;12678;51.336;12.406;2023-03-14T14:32:49;14.80;99.90
24518;DHT22;12678;51.336;12.406;2023-03-14T14:35:34;14.80;99.90
24518;DHT22;12678;51.336;12.406;2023-03-14T14:38:01;14.80;99.90
24518;DHT22;12678;51.336;12.406;2023-03-14T14:40:28;14.80;99.90
24518;DHT22;12678;51.336;12.406;2023-03-14T14:43:01;14.70;99.90
24518;DHT22;12678;51.336;12.406;2023-03-14T14:45:28;14.70;99.90
24518;DHT22;12678;51.336;12.406;2023-03-14T14:47:57;14.70;99.90
24518;DHT22;12678;51.336;12.406;2023-03-14T14:50:32;14.70;99.90
24518;DHT22;12678;51.336;12.406;2023-03-14T14:53:00;14.60;99.90
24518;DHT22;12678;51.336;12.406;2023-03-14T14:55:32;14.60;99.90
24518;DHT22;12678;51.336;12.406;2023-03-14T14:58:12;14.60;99.90
24518;DHT22;12678;51.336;12.406;2023-03-14T15:00:41;14.60;99.90
24518;DHT22;12678;51.336;12.406;2023-03-14T15:03:14;14.40;99.90
24518;DHT22;12678;51.336;12.406;2023-03-14T15:05:40;14.30;99.90
24518;DHT22;12678;51.336;12.406;2023-03-14T15:08:12;14.10;99.90
24518;DHT22;12678;51.336;12.406;2023-03-14T15:10:38;13.90;99.90
24518;DHT22;12678;51.336;12.406;2023-03-14T15:13:04;13.50;99.90
24518;DHT22;12678;51.336;12.406;2023-03-14T15:15:30;13.40;99.90
24518;DHT22;12678;51.336;12.406;2023-03-14T15:17:56;13.30;99.90
24518;DHT22;12678;51.336;12.406;2023-03-14T15:20:22;13.10;99.90
24518;DHT22;12678;51.336;12.406;2023-03-14T15:22:49;12.30;99.90
24518;DHT22;12678;51.336;12.406;2023-03-14T15:25:15;11.70;99.90
24518;DHT22;12678;51.336;12.406;2023-03-14T15:27:41;11.00;99.90
24518;DHT22;12678;51.336;12.406;2023-03-14T15:30:12;10.70;99.90
24518;DHT22;12678;51.336;12.406;2023-03-14T15:32:38;10.30;99.90
24518;DHT22;12678;51.336;12.406;2023-03-14T15:35:04;10.00;99.90
24518;DHT22;12678;51.336;12.406;2023-03-14T15:37:30;9.80;99.90
24518;DHT22;12678;51.336;12.406;2023-03-14T15:39:56;9.70;99.90
24518;DHT22;12678;51.336;12.406;2023-03-14T15:42:24;9.50;99.90
24518;DHT22;12678;51.336;12.406;2023-03-14T15:44:50;9.40;99.90
24518;DHT22;12678;51.336;12.406;2023-03-14T15:47:16;9.20;99.90
24518;DHT22;12678;51.336;12.406;2023-03-14T15:49:41;9.10;99.90
24518;DHT22;12678;51.336;12.406;2023-03-14T15:52:08;8.90;99.90
24518;DHT22;12678;51.336;12.406;2023-03-14T15:54:34;8.70;99.90
24518;DHT22;12678;51.336;12.406;2023-03-14T15:57:00;8.50;99.90
24518;DHT22;12678;51.336;12.406;2023-03-14T15:59:26;8.40;99.90
24518;DHT22;12678;51.336;12.406;2023-03-14T16:01:51;8.20;99.90
24518;DHT22;12678;51.336;12.406;2023-03-14T16:04:17;8.20;99.90
24518;DHT22;12678;51.336;12.406;2023-03-14T16:06:43;8.10;99.90
24518;DHT22;12678;51.336;12.406;2023-03-14T16:09:10;8.10;99.90
24518;DHT22;12678;51.336;12.406;2023-03-14T16:11:37;8.00;99.90
24518;DHT22;12678;51.336;12.406;2023-03-14T16:14:02;7.80;99.90
24518;DHT22;12678;51.336;12.406;2023-03-14T16:16:28;7.70;99.90
24518;DHT22;12678;51.336;12.406;2023-03-14T16:18:56;7.70;99.90
24518;DHT22;12678;51.336;12.406;2023-03-14T16:21:21;7.60;99.90
24518;DHT22;12678;51.336;12.406;2023-03-14T16:23:47;7.60;99.90
24518;DHT22;12678;51.336;12.406;2023-03-14T16:26:15;7.50;99.90
24518;DHT22;12678;51.336;12.406;2023-03-14T16:28:42;7.40;99.90
24518;DHT22;12678;51.336;12.406;2023-03-14T16:31:11;7.40;99.90
24518;DHT22;12678;51.336;12.406;2023-03-14T16:33:38;7.30;99.90